Kyokusho Maru — JL6605 — position and weather

sailwx.info

Track history (hours):
 
Tides and Currents Weather Stations Pressure Air Temp Water Temp Dewpoint Dewpoint Depression Visibility Wind Speed Wind Dir Waves Ship Positions

Kyokusho Maru

Last reported at 2016-Sep-22 03:33 UTC. Time now 2016-Sep-24 20:55 UTC.
Position N 34°09' E 135°08'.

Length 77 m; draft 3.4 m.

Type: Tanker. MMSI: 431501667.

Date/timePositionNaut miles runAvg speedWind from/ knotsBaromVisibWave heightAir tempDewpointWater temp
2016-Sep-22 03:33N 34°09' E 135°08'1 0.3
2016-Sep-22 00:33N 34°10' E 135°09'0 0.0
2016-Sep-21 23:24N 34°09' E 135°09'0 0.0
2016-Sep-21 22:30N 34°09' E 135°09'0 0.0
2016-Sep-21 19:27N 34°09' E 135°09'0 0.0
2016-Sep-21 16:30N 34°09' E 135°09'0 0.0
2016-Sep-21 09:33N 34°09' E 135°09'0 0.0
2016-Sep-21 08:30N 34°09' E 135°09'0 0.0
2016-Sep-21 05:34N 34°09' E 135°09'14 1.1
2016-Sep-20 17:30N 34°23' E 135°11'0 0.0
2016-Sep-19 06:15N 34°23' E 135°11'0 0.0
2016-Sep-19 03:15N 34°23' E 135°11'13 4.9
2016-Sep-19 00:33N 34°35' E 135°04'  
2016-Sep-14 22:20N 34°32' E 135°20'0 0.0
2016-Sep-14 21:32N 34°32' E 135°20'0 0.0
2016-Sep-14 17:32N 34°32' E 135°20'0 0.0
2016-Sep-14 16:32N 34°32' E 135°20'0 0.0
2016-Sep-14 13:32N 34°32' E 135°20'0 0.0
2016-Sep-14 12:32N 34°32' E 135°20'0 0.0
2016-Sep-14 09:20N 34°32' E 135°20'810.8
2016-Sep-14 08:33N 34°35' E 135°10'1110.8
2016-Sep-14 07:31N 34°36' E 134°57'28 1.1
2016-Sep-13 06:16N 34°08' E 134°56'10 1.5
2016-Sep-12 23:33N 34°09' E 135°08'1 0.3
2016-Sep-12 21:26N 34°09' E 135°09'0 0.0
2016-Sep-12 19:32N 34°09' E 135°09'0 0.0
2016-Sep-12 17:20N 34°09' E 135°09'0 0.0
2016-Sep-12 14:32N 34°09' E 135°09'0 0.0
2016-Sep-12 13:29N 34°09' E 135°09'0 0.1
2016-Sep-12 12:32N 34°09' E 135°09'0 0.0
2016-Sep-12 11:29N 34°09' E 135°09'0 0.3
2016-Sep-12 10:33N 34°09' E 135°09'  
Track history (hours):
 
Tides and Currents Weather Stations Pressure Air Temp Water Temp Dewpoint Dewpoint Depression Visibility Wind Speed Wind Dir Waves Ship Positions

Kyokusho Maru

Last reported at 2016-Sep-22 03:33 UTC. Time now 2016-Sep-24 20:55 UTC.
Position N 34°09' E 135°08'.

Length 77 m; draft 3.4 m.

Type: Tanker. MMSI: 431501667.

Date/timePositionNaut miles runAvg speedWind from/ knotsBaromVisibWave heightAir tempDewpointWater temp
2016-Sep-22 03:33N 34°09' E 135°08'1 0.3
2016-Sep-22 00:33N 34°10' E 135°09'0 0.0
2016-Sep-21 23:24N 34°09' E 135°09'0 0.0
2016-Sep-21 22:30N 34°09' E 135°09'0 0.0
2016-Sep-21 19:27N 34°09' E 135°09'0 0.0
2016-Sep-21 16:30N 34°09' E 135°09'0 0.0
2016-Sep-21 09:33N 34°09' E 135°09'0 0.0
2016-Sep-21 08:30N 34°09' E 135°09'0 0.0
2016-Sep-21 05:34N 34°09' E 135°09'14 1.1
2016-Sep-20 17:30N 34°23' E 135°11'0 0.0
2016-Sep-19 06:15N 34°23' E 135°11'0 0.0
2016-Sep-19 03:15N 34°23' E 135°11'13 4.9
2016-Sep-19 00:33N 34°35' E 135°04'  
2016-Sep-14 22:20N 34°32' E 135°20'0 0.0
2016-Sep-14 21:32N 34°32' E 135°20'0 0.0
2016-Sep-14 17:32N 34°32' E 135°20'0 0.0
2016-Sep-14 16:32N 34°32' E 135°20'0 0.0
2016-Sep-14 13:32N 34°32' E 135°20'0 0.0
2016-Sep-14 12:32N 34°32' E 135°20'0 0.0
2016-Sep-14 09:20N 34°32' E 135°20'810.8
2016-Sep-14 08:33N 34°35' E 135°10'1110.8
2016-Sep-14 07:31N 34°36' E 134°57'28 1.1
2016-Sep-13 06:16N 34°08' E 134°56'10 1.5
2016-Sep-12 23:33N 34°09' E 135°08'1 0.3
2016-Sep-12 21:26N 34°09' E 135°09'0 0.0
2016-Sep-12 19:32N 34°09' E 135°09'0 0.0
2016-Sep-12 17:20N 34°09' E 135°09'0 0.0
2016-Sep-12 14:32N 34°09' E 135°09'0 0.0
2016-Sep-12 13:29N 34°09' E 135°09'0 0.1
2016-Sep-12 12:32N 34°09' E 135°09'0 0.0
2016-Sep-12 11:29N 34°09' E 135°09'0 0.3
2016-Sep-12 10:33N 34°09' E 135°09'  

Dump ship's entire track history